createdAt,value
2019-03-29T11:21:46.679Z,56.25
2019-03-29T11:23:01.076Z,67.5
2019-03-29T11:24:15.673Z,123.75
2019-03-29T11:25:30.069Z,135
2019-03-29T11:26:44.811Z,140.625
2019-03-29T12:13:21.534Z,22.5
2019-03-29T12:14:35.303Z,45
2019-03-29T12:15:49.067Z,50.625
2019-03-29T12:17:02.860Z,50.625
2019-03-29T12:18:16.601Z,45
2019-03-29T12:19:30.338Z,50.625
2019-03-29T12:20:44.090Z,45
2019-03-29T12:21:57.830Z,50.625
2019-03-29T12:23:11.641Z,45
2019-03-29T12:24:25.456Z,45
2019-03-29T12:25:39.216Z,45
2019-03-29T12:26:54.974Z,45
2019-03-29T12:28:07.720Z,45
2019-03-29T12:29:21.461Z,45
2019-03-29T12:30:35.178Z,45
2019-03-29T12:31:48.992Z,39.375
2019-03-29T12:33:02.837Z,45
2019-03-29T12:34:16.580Z,45
2019-03-29T12:35:31.313Z,45
2019-03-29T12:36:46.068Z,45
2019-03-29T12:37:59.888Z,45
2019-03-29T12:39:13.725Z,45
2019-03-29T12:40:27.549Z,45
2019-03-29T12:41:41.354Z,45
2019-03-29T12:42:55.147Z,39.375
2019-03-29T12:44:08.889Z,39.375
2019-03-29T12:45:22.661Z,39.375
2019-03-29T12:46:36.426Z,39.375
2019-03-29T12:47:50.163Z,39.375
2019-03-29T12:49:03.933Z,39.375
2019-03-29T12:50:17.704Z,39.375
2019-03-29T12:51:31.465Z,39.375
2019-03-29T12:52:45.251Z,39.375
2019-03-29T12:53:59.058Z,39.375
2019-03-29T12:55:12.858Z,39.375
2019-03-29T12:56:26.626Z,39.375
2019-03-29T12:57:41.102Z,39.375
2019-03-29T12:58:54.869Z,39.375
2019-03-29T13:00:08.656Z,39.375
2019-03-29T13:01:22.451Z,39.375
2019-03-29T13:02:36.208Z,39.375
2019-03-29T13:03:50.278Z,39.375
2019-03-29T13:05:04.072Z,39.375
2019-03-29T13:06:17.812Z,39.375
2019-03-29T13:07:31.580Z,39.375
2019-03-29T13:08:45.396Z,39.375
2019-03-29T13:09:59.254Z,39.375
2019-03-29T13:11:13.013Z,39.375
2019-03-29T13:12:26.764Z,39.375
2019-03-29T13:13:40.508Z,39.375
2019-03-29T13:14:54.293Z,39.375
2019-03-29T13:16:08.061Z,39.375
2019-03-29T13:17:22.837Z,39.375
2019-03-29T13:18:36.593Z,39.375
2019-03-29T13:19:50.408Z,39.375
2019-03-29T13:21:04.278Z,39.375
2019-03-29T13:22:18.005Z,39.375
2019-03-29T13:23:31.788Z,39.375
2019-03-29T13:24:45.610Z,39.375
2019-03-29T13:25:59.419Z,39.375
2019-03-29T13:27:13.196Z,39.375
2019-03-29T13:28:26.934Z,39.375
2019-03-29T13:29:40.766Z,39.375
2019-03-29T13:30:54.598Z,39.375
2019-03-29T13:32:08.332Z,39.375
2019-03-29T13:33:22.059Z,39.375
2019-03-29T13:34:35.856Z,39.375
2019-03-29T13:35:49.576Z,39.375
2019-03-29T13:37:03.342Z,39.375
2019-03-29T13:38:20.235Z,39.375
2019-03-29T13:39:31.822Z,39.375
2019-03-29T13:40:45.582Z,39.375
2019-03-29T13:41:59.349Z,39.375
2019-03-29T13:43:13.102Z,39.375
2019-03-29T13:44:28.351Z,39.375
2019-03-29T13:45:41.539Z,39.375
2019-03-29T13:46:56.280Z,39.375
2019-03-29T13:48:10.040Z,39.375
2019-03-29T13:49:23.845Z,39.375
2019-03-29T13:50:37.637Z,39.375
2019-03-29T13:51:51.459Z,39.375
2019-03-29T13:53:05.195Z,39.375
2019-03-29T13:54:18.957Z,39.375
2019-03-29T13:55:32.733Z,39.375
2019-03-29T13:56:46.492Z,39.375
2019-03-29T13:58:00.255Z,39.375
2019-03-29T13:59:14.052Z,39.375
2019-03-29T14:00:27.801Z,39.375
2019-03-29T14:01:41.565Z,39.375
2019-03-29T14:02:55.327Z,39.375
2019-03-29T14:04:09.069Z,39.375
2019-03-29T14:05:22.820Z,39.375
2019-03-29T14:06:36.549Z,39.375
2019-03-29T14:07:50.319Z,39.375
2019-03-29T14:09:04.106Z,39.375
2019-03-29T14:10:17.866Z,39.375
2019-03-29T14:11:31.610Z,39.375
2019-03-29T14:12:45.385Z,33.75
2019-03-29T14:13:59.135Z,33.75
2019-03-29T14:15:12.935Z,33.75
2019-03-29T14:16:26.686Z,33.75
2019-03-29T14:17:40.429Z,39.375
2019-03-29T14:18:54.160Z,39.375
2019-03-29T14:20:07.907Z,39.375
2019-03-29T14:21:21.666Z,39.375
2019-03-29T14:22:35.436Z,39.375
2019-03-29T14:23:49.206Z,39.375
2019-03-29T14:25:02.991Z,39.375
2019-03-29T14:26:16.746Z,39.375
2019-03-29T14:27:30.481Z,39.375
2019-03-29T14:28:44.278Z,39.375
2019-03-29T14:30:03.912Z,39.375
2019-03-29T14:31:12.758Z,39.375
2019-03-29T14:32:26.494Z,39.375
2019-03-29T14:33:40.268Z,39.375
2019-03-29T14:34:54.010Z,39.375
2019-03-29T14:36:07.783Z,39.375
2019-03-29T14:37:21.547Z,39.375
2019-03-29T14:38:35.312Z,39.375
2019-03-29T14:39:49.039Z,39.375
2019-03-29T14:41:02.807Z,39.375
2019-03-29T14:42:16.533Z,39.375
2019-03-29T14:43:30.288Z,39.375
2019-03-29T14:44:52.022Z,39.375
2019-03-29T14:45:58.774Z,39.375
2019-03-29T14:47:12.577Z,39.375
2019-03-29T14:48:26.325Z,39.375
2019-03-29T14:49:40.055Z,39.375
2019-03-29T14:50:53.823Z,39.375
2019-03-29T14:52:07.566Z,39.375
2019-03-29T14:53:21.316Z,39.375
2019-03-29T14:54:36.089Z,39.375
2019-03-29T14:55:49.897Z,39.375
2019-03-29T14:57:05.494Z,39.375
2019-03-29T14:58:18.541Z,39.375
2019-03-29T14:59:32.266Z,39.375
2019-03-29T15:00:48.533Z,39.375
2019-03-29T15:02:00.828Z,39.375
2019-03-29T15:03:14.582Z,39.375
2019-03-29T15:04:28.352Z,39.375
2019-03-29T15:05:42.169Z,39.375
2019-03-29T15:06:55.942Z,39.375
2019-03-29T15:08:09.880Z,39.375
2019-03-29T15:09:23.628Z,39.375
2019-03-29T15:10:37.357Z,39.375
2019-03-29T15:11:51.132Z,39.375
2019-03-29T15:13:05.872Z,39.375
2019-03-29T15:14:19.586Z,39.375
2019-03-29T15:15:33.320Z,39.375
2019-03-29T15:16:47.100Z,39.375
2019-03-29T15:18:00.917Z,33.75
2019-03-29T15:19:14.660Z,33.75
2019-03-29T15:20:28.400Z,33.75
2019-03-29T15:21:42.155Z,33.75
2019-03-29T15:22:55.895Z,33.75
2019-03-29T15:24:09.637Z,33.75
2019-03-29T15:25:23.375Z,33.75
2019-03-29T15:26:37.127Z,33.75
2019-03-29T15:27:50.856Z,33.75
2019-03-29T15:29:04.584Z,33.75
2019-03-29T15:30:18.328Z,33.75
2019-03-29T15:31:32.115Z,33.75
2019-03-29T15:32:45.897Z,33.75
2019-03-29T15:33:59.638Z,33.75
2019-03-29T15:35:13.406Z,33.75
2019-03-29T15:36:27.167Z,33.75
2019-03-29T15:37:40.924Z,33.75
2019-03-29T15:38:55.504Z,33.75
2019-03-29T15:40:09.259Z,33.75
2019-03-29T15:41:23.071Z,33.75
2019-03-29T15:42:36.799Z,33.75
2019-03-29T15:43:50.539Z,33.75
2019-03-29T15:45:04.282Z,33.75
2019-03-29T15:46:18.062Z,33.75
2019-03-29T15:47:31.795Z,33.75
2019-03-29T15:48:45.611Z,33.75
2019-03-29T15:49:59.312Z,33.75
2019-03-29T15:51:13.094Z,33.75
2019-03-29T15:52:26.851Z,28.125
2019-03-29T15:53:40.610Z,28.125
2019-03-29T15:54:54.363Z,28.125
2019-03-29T15:56:08.122Z,28.125
2019-03-29T15:57:21.888Z,28.125
2019-03-29T15:58:35.685Z,28.125
2019-03-29T15:59:49.450Z,28.125
2019-03-29T16:01:03.244Z,28.125
2019-03-29T16:02:17.042Z,28.125
2019-03-29T16:03:31.730Z,28.125
2019-03-29T16:04:45.501Z,28.125
2019-03-29T16:05:59.261Z,28.125
2019-03-29T16:07:13.011Z,28.125
2019-03-29T16:08:26.783Z,28.125
2019-03-29T16:09:40.527Z,28.125
2019-03-29T16:10:54.264Z,28.125
2019-03-29T16:12:08.000Z,28.125
2019-03-29T16:13:21.788Z,28.125
2019-03-29T16:14:35.522Z,28.125
2019-03-29T16:15:49.260Z,28.125
2019-03-29T16:17:03.048Z,22.5
2019-03-29T16:18:16.792Z,22.5
2019-03-29T16:19:30.613Z,22.5
2019-03-29T16:20:44.332Z,22.5
2019-03-29T16:21:58.158Z,22.5
2019-03-29T16:23:11.896Z,22.5
2019-03-29T16:24:25.629Z,22.5
2019-03-29T16:25:39.379Z,22.5
2019-03-29T16:26:53.178Z,22.5
2019-03-29T16:28:06.964Z,22.5
2019-03-29T16:29:20.728Z,22.5
2019-03-29T16:30:34.541Z,22.5
2019-03-29T16:31:48.251Z,22.5
2019-03-29T16:33:02.011Z,22.5
2019-03-29T16:34:15.807Z,16.875
2019-03-29T16:35:29.562Z,16.875
2019-03-29T16:36:43.311Z,16.875
2019-03-29T16:37:57.783Z,16.875
2019-03-29T16:39:10.750Z,16.875
2019-03-29T16:40:24.525Z,16.875
2019-03-29T16:41:38.277Z,16.875
2019-03-29T16:42:52.057Z,16.875
2019-03-29T16:44:05.799Z,16.875
2019-03-29T16:45:19.574Z,16.875
2019-03-29T16:46:33.312Z,16.875
2019-03-29T16:47:47.087Z,16.875
2019-03-29T16:49:00.827Z,16.875
2019-03-29T16:50:14.584Z,16.875
2019-03-29T16:51:28.330Z,16.875
2019-03-29T16:52:42.121Z,16.875
2019-03-29T16:53:55.877Z,16.875
2019-03-29T16:55:13.355Z,16.875
2019-03-29T16:56:24.355Z,16.875
2019-03-29T16:57:38.138Z,16.875
2019-03-29T16:58:51.932Z,11.25
2019-03-29T17:00:05.667Z,11.25
2019-03-29T17:01:20.408Z,11.25
2019-03-29T17:02:34.154Z,11.25
2019-03-29T17:03:47.938Z,11.25
2019-03-29T17:05:01.677Z,11.25
2019-03-29T17:06:15.421Z,11.25
2019-03-29T17:07:29.217Z,11.25
2019-03-29T17:08:42.968Z,11.25
2019-03-29T17:09:56.712Z,11.25
2019-03-29T17:11:10.453Z,11.25
2019-03-29T17:12:24.236Z,11.25
2019-03-29T17:13:38.024Z,11.25
2019-03-29T17:14:51.821Z,11.25
2019-03-29T17:16:05.601Z,11.25
2019-03-29T17:17:19.412Z,11.25
2019-03-29T17:18:33.148Z,11.25
2019-03-29T17:19:46.916Z,11.25
2019-03-29T17:21:00.766Z,11.25
2019-03-29T17:22:14.402Z,5.625
2019-03-29T17:23:28.207Z,5.625
2019-03-29T17:24:55.990Z,5.625
2019-03-29T17:25:56.705Z,5.625
2019-03-29T17:27:10.485Z,5.625
2019-03-29T17:28:24.303Z,5.625
2019-03-29T17:29:38.065Z,5.625
2019-03-29T17:30:51.799Z,5.625
2019-03-29T17:32:05.572Z,5.625
2019-03-29T17:33:22.258Z,5.625
2019-03-29T17:34:34.055Z,5.625
2019-03-29T17:35:47.776Z,5.625
2019-03-29T17:37:01.531Z,5.625
2019-03-29T17:38:15.301Z,5.625
2019-03-29T17:39:29.046Z,5.625
2019-03-29T17:40:42.768Z,5.625
2019-03-29T17:41:56.498Z,5.625
2019-03-29T17:43:10.314Z,0
2019-03-29T17:44:24.102Z,0
2019-03-29T17:45:37.986Z,0
2019-03-29T17:46:51.733Z,0
2019-03-29T17:48:05.572Z,0
2019-03-29T17:49:19.332Z,0
2019-03-29T17:50:33.091Z,0
2019-03-29T17:51:46.910Z,0
2019-03-29T17:53:00.727Z,0
2019-03-29T17:54:14.509Z,0
2019-03-29T17:55:31.545Z,0
2019-03-29T17:56:43.062Z,0
2019-03-29T17:57:56.831Z,0
2019-03-29T17:59:10.640Z,0
2019-03-29T18:00:24.424Z,0
2019-03-29T18:01:39.373Z,0
2019-03-29T18:02:52.912Z,0
2019-03-29T18:04:06.712Z,0
2019-03-29T18:05:20.446Z,0
2019-03-29T18:06:34.209Z,0
2019-03-29T18:07:47.965Z,0
2019-03-29T18:09:01.721Z,0
2019-03-29T18:10:15.482Z,0
2019-03-29T18:11:29.261Z,0
2019-03-29T18:12:42.996Z,0
2019-03-29T18:13:56.775Z,0
2019-03-29T18:15:10.525Z,0
2019-03-29T18:16:30.252Z,0
2019-03-29T18:17:39.015Z,0
2019-03-29T18:18:52.763Z,0
2019-03-29T18:20:06.588Z,0
2019-03-29T18:21:20.512Z,0
2019-03-29T18:22:34.290Z,0
2019-03-29T18:23:48.244Z,0
2019-03-29T18:25:01.818Z,0
2019-03-29T18:26:15.607Z,0
2019-03-29T18:27:29.348Z,0
2019-03-29T18:28:43.069Z,0
2019-03-29T18:29:56.832Z,0
2019-03-29T18:31:10.603Z,0
2019-03-29T18:32:24.333Z,0
2019-03-29T18:33:38.062Z,0
2019-03-29T18:34:52.003Z,0
2019-03-29T18:36:05.777Z,0
2019-03-29T18:37:19.573Z,0
2019-03-29T18:38:33.337Z,0
2019-03-29T18:39:47.203Z,0
2019-03-29T18:41:00.946Z,0
2019-03-29T18:42:14.779Z,0
2019-03-29T18:43:28.540Z,0
2019-03-29T18:44:42.323Z,0
2019-03-29T18:45:56.104Z,0
2019-03-29T18:47:09.917Z,0
2019-03-29T18:48:23.678Z,0
2019-03-29T18:49:37.429Z,0
2019-03-29T18:50:51.290Z,0
2019-03-29T18:52:05.054Z,0
2019-03-29T18:53:18.852Z,0
2019-03-29T18:54:32.606Z,0
2019-03-29T18:55:46.358Z,0
2019-03-29T18:57:00.649Z,0
2019-03-29T18:58:14.441Z,0
2019-03-29T18:59:28.182Z,0
2019-03-29T19:00:41.942Z,0
2019-03-29T19:01:55.725Z,0
2019-03-29T19:03:11.764Z,0
2019-03-29T19:04:24.256Z,0
2019-03-29T19:05:38.060Z,0
2019-03-29T19:06:51.838Z,0
2019-03-29T19:08:05.603Z,0
2019-03-29T19:09:19.398Z,0
2019-03-29T19:10:33.199Z,0
2019-03-29T19:11:46.967Z,0
2019-03-29T19:13:00.780Z,0
2019-03-29T19:14:14.525Z,0
2019-03-29T19:15:28.350Z,0
2019-03-29T19:16:42.112Z,0
2019-03-29T19:17:55.885Z,0
2019-03-29T19:19:10.532Z,0
2019-03-29T19:20:27.596Z,0
2019-03-29T19:21:39.417Z,0
2019-03-29T19:22:53.169Z,0
2019-03-29T19:24:06.977Z,0
2019-03-29T19:25:20.733Z,0
2019-03-29T19:26:34.544Z,0
2019-03-29T19:27:48.289Z,0
2019-03-29T19:29:02.048Z,0
2019-03-29T19:30:15.826Z,0
2019-03-29T19:31:29.589Z,0
2019-03-29T19:32:43.348Z,0
2019-03-29T19:33:57.133Z,0
2019-03-29T19:35:10.863Z,0
2019-03-29T19:36:24.647Z,0
2019-03-29T19:37:38.408Z,0
2019-03-29T19:38:52.252Z,0
2019-03-29T19:40:05.990Z,0
2019-03-29T19:41:19.777Z,0
2019-03-29T19:42:33.524Z,0
2019-03-29T19:43:47.295Z,0
2019-03-29T19:45:01.087Z,0
2019-03-29T19:46:14.811Z,0
2019-03-29T19:47:28.605Z,0
2019-03-29T19:48:42.393Z,0
2019-03-29T19:49:56.156Z,0
2019-03-29T19:51:09.997Z,0
2019-03-29T19:52:25.136Z,0
2019-03-29T19:53:38.565Z,0
2019-03-29T19:54:52.342Z,0
2019-03-29T19:56:06.189Z,0
2019-03-29T19:57:19.931Z,0
2019-03-29T19:58:33.711Z,0
2019-03-29T19:59:48.252Z,0
2019-03-29T20:01:02.359Z,0
2019-03-29T20:02:16.113Z,0
2019-03-29T20:03:29.889Z,0
2019-03-29T20:04:43.655Z,0
2019-03-29T20:05:57.435Z,0
2019-03-29T20:07:11.254Z,0
2019-03-29T20:08:24.992Z,0
2019-03-29T20:09:41.833Z,0
2019-03-29T20:10:53.524Z,0
2019-03-29T20:12:07.305Z,0
2019-03-29T20:13:21.060Z,0
2019-03-29T20:14:34.808Z,0
2019-03-29T20:15:48.558Z,0
2019-03-29T20:17:02.348Z,0
2019-03-29T20:18:16.121Z,0
2019-03-29T20:19:29.857Z,0
2019-03-29T20:20:43.668Z,0
2019-03-29T20:21:57.407Z,0
2019-03-29T20:23:11.232Z,0
2019-03-29T20:24:25.011Z,0
2019-03-29T20:25:38.749Z,0
2019-03-29T20:26:52.553Z,0
2019-03-29T20:28:06.324Z,0
2019-03-29T20:29:20.103Z,0
2019-03-29T20:30:33.855Z,0
2019-03-29T20:31:50.474Z,0
2019-03-29T20:33:02.490Z,0
2019-03-29T20:34:16.241Z,0
2019-03-29T20:35:30.035Z,0
2019-03-29T20:36:43.886Z,0
2019-03-29T20:37:57.685Z,0
2019-03-29T20:39:11.427Z,0
2019-03-29T20:40:25.181Z,0
2019-03-29T20:41:38.949Z,0
2019-03-29T20:42:52.782Z,0
2019-03-29T20:44:06.545Z,0
2019-03-29T20:45:20.431Z,0
2019-03-29T20:46:34.131Z,0
2019-03-29T20:47:51.123Z,0
2019-03-29T20:49:02.611Z,0
2019-03-29T20:50:16.392Z,0
2019-03-29T20:51:30.159Z,0
2019-03-29T20:52:43.963Z,0
2019-03-29T20:53:57.722Z,0
2019-03-29T20:55:11.472Z,0
2019-03-29T20:56:25.226Z,0
2019-03-29T20:57:39.069Z,0
2019-03-29T20:58:52.810Z,0
2019-03-29T21:00:06.582Z,0
2019-03-29T21:01:20.392Z,0
2019-03-29T21:02:34.208Z,0
2019-03-29T21:03:47.972Z,0
2019-03-29T21:05:01.745Z,0
2019-03-29T21:06:15.501Z,0
2019-03-29T21:07:29.288Z,0
2019-03-29T21:08:43.081Z,0
2019-03-29T21:09:56.862Z,0
2019-03-29T21:11:10.609Z,0
2019-03-29T21:12:24.505Z,0
2019-03-29T21:13:38.292Z,0
2019-03-29T21:14:52.054Z,0
2019-03-29T21:16:05.814Z,0
2019-03-29T21:17:19.668Z,0
2019-03-29T21:18:33.421Z,0
2019-03-29T21:19:47.269Z,0
2019-03-29T21:21:01.003Z,0
2019-03-29T21:22:14.790Z,0
2019-03-29T21:23:28.535Z,0
2019-03-29T21:24:42.327Z,0
2019-03-29T21:25:56.085Z,0
2019-03-29T21:27:09.889Z,0
2019-03-29T21:28:23.597Z,0
2019-03-29T21:29:37.348Z,0
2019-03-29T21:30:51.108Z,0
2019-03-29T21:32:05.003Z,0
2019-03-29T21:33:18.763Z,0
2019-03-29T21:34:32.571Z,0
2019-03-29T21:35:46.286Z,0
2019-03-29T21:37:00.065Z,0
2019-03-29T21:38:13.842Z,0
2019-03-29T21:39:31.187Z,0
2019-03-29T21:40:43.344Z,0
2019-03-29T21:41:57.160Z,0
2019-03-29T21:43:10.914Z,0
2019-03-29T21:44:24.695Z,0
2019-03-29T21:45:38.440Z,0
2019-03-29T21:46:52.239Z,0
2019-03-29T21:48:27.187Z,0
2019-03-29T21:49:20.789Z,0
2019-03-29T21:50:34.542Z,0
2019-03-29T21:51:48.326Z,0
2019-03-29T21:53:02.112Z,0
2019-03-29T21:54:15.867Z,0
2019-03-29T21:55:29.633Z,0
2019-03-29T21:56:43.471Z,0
2019-03-29T21:57:58.218Z,0
2019-03-29T21:59:11.978Z,0
2019-03-29T22:00:25.755Z,0
2019-03-29T22:01:39.520Z,0
2019-03-29T22:02:53.417Z,0
2019-03-29T22:04:07.168Z,0
2019-03-29T22:05:20.901Z,0
2019-03-29T22:06:34.661Z,0
2019-03-29T22:07:48.482Z,0
2019-03-29T22:09:02.292Z,0
2019-03-29T22:10:16.068Z,0
2019-03-29T22:11:29.850Z,0
2019-03-29T22:12:43.604Z,0
2019-03-29T22:13:57.382Z,0
2019-03-29T22:15:11.107Z,0
2019-03-29T22:16:24.864Z,0
2019-03-29T22:17:38.734Z,0
2019-03-29T22:18:52.475Z,0
2019-03-29T22:20:06.252Z,0
2019-03-29T22:21:20.005Z,0
2019-03-29T22:22:33.789Z,0
2019-03-29T22:23:47.548Z,0
2019-03-29T22:25:01.328Z,0
2019-03-29T22:26:15.085Z,0
2019-03-29T22:27:28.872Z,0
2019-03-29T22:28:42.679Z,0
2019-03-29T22:29:56.457Z,0
2019-03-29T22:31:10.229Z,0
2019-03-29T22:32:23.977Z,0
2019-03-29T22:33:37.763Z,0
2019-03-29T22:34:51.575Z,0
2019-03-29T22:36:05.341Z,0
2019-03-29T22:37:19.114Z,0
2019-03-29T22:38:32.947Z,0
2019-03-29T22:39:47.242Z,0
2019-03-29T22:41:00.525Z,0
2019-03-29T22:42:14.296Z,0
2019-03-29T22:43:28.094Z,0
2019-03-29T22:44:41.852Z,0
2019-03-29T22:45:55.655Z,0
2019-03-29T22:47:09.422Z,0
2019-03-29T22:48:23.197Z,0
2019-03-29T22:49:36.972Z,0
2019-03-29T22:50:50.732Z,0
2019-03-29T22:52:04.508Z,0
2019-03-29T22:53:18.289Z,0
2019-03-29T22:54:32.035Z,0
2019-03-29T22:55:45.782Z,0
2019-03-29T22:57:00.524Z,0
2019-03-29T22:58:14.304Z,0
2019-03-29T22:59:28.097Z,0
2019-03-29T23:00:41.887Z,0
2019-03-29T23:01:55.628Z,0
2019-03-29T23:03:09.398Z,0
2019-03-29T23:04:23.213Z,0
2019-03-29T23:05:37.036Z,0
2019-03-29T23:06:50.775Z,0
2019-03-29T23:08:04.555Z,0
2019-03-29T23:09:18.602Z,0
2019-03-29T23:10:32.368Z,0
2019-03-29T23:11:46.143Z,0
2019-03-29T23:12:59.903Z,0
2019-03-29T23:14:13.727Z,0
2019-03-29T23:15:27.527Z,0
2019-03-29T23:16:41.277Z,0
2019-03-29T23:17:55.047Z,0
2019-03-29T23:19:08.794Z,0
2019-03-29T23:20:22.556Z,0
2019-03-29T23:21:36.603Z,0
2019-03-29T23:22:50.399Z,0
2019-03-29T23:24:04.152Z,0
2019-03-29T23:25:17.904Z,0
2019-03-29T23:26:31.677Z,0
2019-03-29T23:27:45.410Z,0
2019-03-29T23:28:59.166Z,0
2019-03-29T23:30:12.987Z,0
2019-03-29T23:31:26.729Z,0
2019-03-29T23:32:40.502Z,0
2019-03-29T23:33:54.244Z,0
2019-03-29T23:35:08.040Z,0
2019-03-29T23:36:21.795Z,0
2019-03-29T23:37:35.623Z,0
2019-03-29T23:38:49.371Z,0
2019-03-29T23:40:03.155Z,0
2019-03-29T23:41:16.914Z,0
2019-03-29T23:42:30.688Z,0
2019-03-29T23:43:44.465Z,0
2019-03-29T23:44:58.230Z,0
2019-03-29T23:46:12.043Z,0
2019-03-29T23:47:25.778Z,0
2019-03-29T23:48:39.533Z,0
2019-03-29T23:49:53.281Z,0
2019-03-29T23:51:07.049Z,0
2019-03-29T23:52:20.841Z,0
2019-03-29T23:53:34.575Z,0
2019-03-29T23:54:48.325Z,0
2019-03-29T23:56:02.082Z,0
2019-03-29T23:57:15.856Z,0
2019-03-29T23:58:29.618Z,0
2019-03-29T23:59:43.412Z,0
